sensor_id;sensor_type;location;lat;lon;timestamp;pressure;altitude;pressure_sealevel;temperature;humidity
36454;BME280;22478;51.740;-1.314;2023-11-21T00:02:07;100261.93;;;3.04;100.00
36454;BME280;22478;51.740;-1.314;2023-11-21T00:04:34;100264.43;;;3.17;100.00
36454;BME280;22478;51.740;-1.314;2023-11-21T00:07:01;100266.25;;;3.49;100.00
36454;BME280;22478;51.740;-1.314;2023-11-21T00:09:28;100264.86;;;4.30;100.00
36454;BME280;22478;51.740;-1.314;2023-11-21T00:11:55;100272.79;;;2.71;100.00
36454;BME280;22478;51.740;-1.314;2023-11-21T00:14:22;100278.07;;;4.12;100.00
36454;BME280;22478;51.740;-1.314;2023-11-21T00:16:49;100273.94;;;4.22;100.00
36454;BME280;22478;51.740;-1.314;2023-11-21T00:19:17;100277.80;;;3.48;100.00
36454;BME280;22478;51.740;-1.314;2023-11-21T00:21:44;100273.95;;;5.56;100.00
36454;BME280;22478;51.740;-1.314;2023-11-21T00:24:12;100274.57;;;3.98;100.00
36454;BME280;22478;51.740;-1.314;2023-11-21T00:26:39;100283.84;;;3.30;100.00
36454;BME280;22478;51.740;-1.314;2023-11-21T00:29:06;100289.48;;;2.83;100.00
36454;BME280;22478;51.740;-1.314;2023-11-21T00:31:33;100283.42;;;5.45;100.00
36454;BME280;22478;51.740;-1.314;2023-11-21T00:34:00;100298.15;;;2.34;100.00
36454;BME280;22478;51.740;-1.314;2023-11-21T00:36:27;100293.54;;;4.14;100.00
36454;BME280;22478;51.740;-1.314;2023-11-21T00:38:54;100295.44;;;5.04;100.00
36454;BME280;22478;51.740;-1.314;2023-11-21T00:41:21;100301.99;;;1.78;100.00
36454;BME280;22478;51.740;-1.314;2023-11-21T00:43:48;100304.95;;;4.18;100.00
36454;BME280;22478;51.740;-1.314;2023-11-21T00:46:15;100292.76;;;5.75;100.00
36454;BME280;22478;51.740;-1.314;2023-11-21T00:48:42;100302.47;;;3.99;100.00
36454;BME280;22478;51.740;-1.314;2023-11-21T00:51:09;100300.93;;;4.22;100.00
36454;BME280;22478;51.740;-1.314;2023-11-21T00:53:36;100303.95;;;3.63;100.00
36454;BME280;22478;51.740;-1.314;2023-11-21T00:56:04;100305.50;;;4.16;100.00
36454;BME280;22478;51.740;-1.314;2023-11-21T00:58:31;100312.63;;;3.17;100.00
36454;BME280;22478;51.740;-1.314;2023-11-21T01:00:59;100312.31;;;4.31;100.00
36454;BME280;22478;51.740;-1.314;2023-11-21T01:03:26;100315.12;;;4.28;100.00
36454;BME280;22478;51.740;-1.314;2023-11-21T01:05:53;100320.63;;;4.42;100.00
36454;BME280;22478;51.740;-1.314;2023-11-21T01:08:20;100326.12;;;5.02;100.00
36454;BME280;22478;51.740;-1.314;2023-11-21T01:10:47;100328.12;;;3.18;100.00
36454;BME280;22478;51.740;-1.314;2023-11-21T01:13:14;100333.03;;;3.48;100.00
36454;BME280;22478;51.740;-1.314;2023-11-21T01:15:41;100332.29;;;4.49;100.00
36454;BME280;22478;51.740;-1.314;2023-11-21T01:18:08;100337.75;;;3.93;100.00
36454;BME280;22478;51.740;-1.314;2023-11-21T01:20:35;100345.60;;;2.01;100.00
36454;BME280;22478;51.740;-1.314;2023-11-21T01:23:02;100342.58;;;5.28;100.00
36454;BME280;22478;51.740;-1.314;2023-11-21T01:25:29;100351.00;;;3.98;100.00
36454;BME280;22478;51.740;-1.314;2023-11-21T01:27:56;100351.90;;;2.97;100.00
36454;BME280;22478;51.740;-1.314;2023-11-21T01:30:24;100351.77;;;4.51;100.00
36454;BME280;22478;51.740;-1.314;2023-11-21T01:32:51;100353.69;;;3.47;100.00
36454;BME280;22478;51.740;-1.314;2023-11-21T01:35:18;100365.45;;;3.10;100.00
36454;BME280;22478;51.740;-1.314;2023-11-21T01:37:45;100362.15;;;3.44;100.00
36454;BME280;22478;51.740;-1.314;2023-11-21T01:40:12;100368.81;;;3.53;100.00
36454;BME280;22478;51.740;-1.314;2023-11-21T01:42:39;100373.01;;;4.21;100.00
36454;BME280;22478;51.740;-1.314;2023-11-21T01:45:08;100376.90;;;3.08;100.00
36454;BME280;22478;51.740;-1.314;2023-11-21T01:47:36;100384.24;;;3.48;100.00
36454;BME280;22478;51.740;-1.314;2023-11-21T01:50:06;100384.84;;;4.52;100.00
36454;BME280;22478;51.740;-1.314;2023-11-21T01:52:34;100384.83;;;5.22;100.00
36454;BME280;22478;51.740;-1.314;2023-11-21T01:55:04;100391.75;;;4.42;100.00
36454;BME280;22478;51.740;-1.314;2023-11-21T01:57:31;100400.51;;;3.68;100.00
36454;BME280;22478;51.740;-1.314;2023-11-21T02:00:01;100405.95;;;4.19;100.00
36454;BME280;22478;51.740;-1.314;2023-11-21T02:02:28;100406.48;;;4.70;100.00
36454;BME280;22478;51.740;-1.314;2023-11-21T02:04:55;100412.58;;;4.82;100.00
36454;BME280;22478;51.740;-1.314;2023-11-21T02:07:22;100416.86;;;2.86;100.00
36454;BME280;22478;51.740;-1.314;2023-11-21T02:09:49;100420.46;;;3.36;100.00
36454;BME280;22478;51.740;-1.314;2023-11-21T02:12:16;100419.95;;;4.33;100.00
36454;BME280;22478;51.740;-1.314;2023-11-21T02:14:44;100426.35;;;3.34;100.00
36454;BME280;22478;51.740;-1.314;2023-11-21T02:17:11;100430.56;;;2.12;100.00
36454;BME280;22478;51.740;-1.314;2023-11-21T02:19:38;100428.66;;;3.11;100.00
36454;BME280;22478;51.740;-1.314;2023-11-21T02:22:06;100434.43;;;3.18;100.00
36454;BME280;22478;51.740;-1.314;2023-11-21T02:24:33;100444.54;;;2.80;100.00
36454;BME280;22478;51.740;-1.314;2023-11-21T02:27:00;100450.16;;;1.99;100.00
36454;BME280;22478;51.740;-1.314;2023-11-21T02:29:27;100445.92;;;3.74;100.00
36454;BME280;22478;51.740;-1.314;2023-11-21T02:31:55;100455.75;;;3.74;100.00
36454;BME280;22478;51.740;-1.314;2023-11-21T02:34:23;100461.48;;;3.87;100.00
36454;BME280;22478;51.740;-1.314;2023-11-21T02:36:50;100459.22;;;4.54;100.00
36454;BME280;22478;51.740;-1.314;2023-11-21T02:39:18;100462.42;;;3.89;100.00
36454;BME280;22478;51.740;-1.314;2023-11-21T02:41:45;100461.72;;;3.12;100.00
36454;BME280;22478;51.740;-1.314;2023-11-21T02:44:12;100461.98;;;3.69;100.00
36454;BME280;22478;51.740;-1.314;2023-11-21T02:46:39;100472.91;;;3.54;100.00
36454;BME280;22478;51.740;-1.314;2023-11-21T02:49:06;100473.14;;;4.20;100.00
36454;BME280;22478;51.740;-1.314;2023-11-21T02:51:33;100482.42;;;2.18;100.00
36454;BME280;22478;51.740;-1.314;2023-11-21T02:54:00;100480.09;;;3.35;100.00
36454;BME280;22478;51.740;-1.314;2023-11-21T02:56:27;100483.44;;;3.22;100.00
36454;BME280;22478;51.740;-1.314;2023-11-21T02:58:55;100490.87;;;1.96;100.00
36454;BME280;22478;51.740;-1.314;2023-11-21T03:01:23;100492.67;;;2.80;100.00
36454;BME280;22478;51.740;-1.314;2023-11-21T03:03:50;100505.78;;;2.39;100.00
36454;BME280;22478;51.740;-1.314;2023-11-21T03:06:17;100496.68;;;3.76;100.00
36454;BME280;22478;51.740;-1.314;2023-11-21T03:08:45;100486.78;;;3.80;100.00
36454;BME280;22478;51.740;-1.314;2023-11-21T03:11:13;100494.60;;;2.50;100.00
36454;BME280;22478;51.740;-1.314;2023-11-21T03:13:41;100502.49;;;2.51;100.00
36454;BME280;22478;51.740;-1.314;2023-11-21T03:16:08;100495.93;;;1.92;100.00
36454;BME280;22478;51.740;-1.314;2023-11-21T03:18:36;100506.59;;;2.68;100.00
36454;BME280;22478;51.740;-1.314;2023-11-21T03:21:04;100507.44;;;2.41;100.00
36454;BME280;22478;51.740;-1.314;2023-11-21T03:23:31;100510.83;;;2.52;100.00
36454;BME280;22478;51.740;-1.314;2023-11-21T03:25:58;100519.99;;;2.50;100.00
36454;BME280;22478;51.740;-1.314;2023-11-21T03:28:25;100531.06;;;1.67;100.00
36454;BME280;22478;51.740;-1.314;2023-11-21T03:30:52;100530.90;;;2.01;100.00
36454;BME280;22478;51.740;-1.314;2023-11-21T03:33:19;100540.66;;;1.19;100.00
36454;BME280;22478;51.740;-1.314;2023-11-21T03:35:46;100534.06;;;2.64;100.00
36454;BME280;22478;51.740;-1.314;2023-11-21T03:38:13;100534.44;;;3.32;100.00
36454;BME280;22478;51.740;-1.314;2023-11-21T03:40:41;100536.45;;;3.08;100.00
36454;BME280;22478;51.740;-1.314;2023-11-21T03:43:08;100544.51;;;3.23;100.00
36454;BME280;22478;51.740;-1.314;2023-11-21T03:45:35;100544.78;;;3.09;100.00
36454;BME280;22478;51.740;-1.314;2023-11-21T03:48:02;100553.58;;;3.16;100.00
36454;BME280;22478;51.740;-1.314;2023-11-21T03:50:29;100559.48;;;2.39;100.00
36454;BME280;22478;51.740;-1.314;2023-11-21T03:52:56;100571.35;;;1.31;100.00
36454;BME280;22478;51.740;-1.314;2023-11-21T03:55:23;100565.95;;;1.82;100.00
36454;BME280;22478;51.740;-1.314;2023-11-21T03:57:50;100559.42;;;2.31;100.00
36454;BME280;22478;51.740;-1.314;2023-11-21T04:00:18;100563.96;;;2.44;100.00
36454;BME280;22478;51.740;-1.314;2023-11-21T04:02:46;100572.63;;;2.06;100.00
36454;BME280;22478;51.740;-1.314;2023-11-21T04:05:12;100576.63;;;1.42;100.00
36454;BME280;22478;51.740;-1.314;2023-11-21T04:07:39;100571.34;;;1.72;100.00
36454;BME280;22478;51.740;-1.314;2023-11-21T04:10:08;100568.11;;;1.91;100.00
36454;BME280;22478;51.740;-1.314;2023-11-21T04:12:35;100568.74;;;2.79;100.00
36454;BME280;22478;51.740;-1.314;2023-11-21T04:15:02;100575.35;;;2.58;100.00
36454;BME280;22478;51.740;-1.314;2023-11-21T04:17:30;100577.24;;;3.21;100.00
36454;BME280;22478;51.740;-1.314;2023-11-21T04:19:57;100593.32;;;1.94;100.00
36454;BME280;22478;51.740;-1.314;2023-11-21T04:22:24;100579.44;;;3.01;100.00
36454;BME280;22478;51.740;-1.314;2023-11-21T04:24:51;100585.85;;;2.09;100.00
36454;BME280;22478;51.740;-1.314;2023-11-21T04:27:18;100579.76;;;1.10;100.00
36454;BME280;22478;51.740;-1.314;2023-11-21T04:29:45;100583.67;;;2.15;100.00
36454;BME280;22478;51.740;-1.314;2023-11-21T04:32:12;100592.98;;;1.26;100.00
36454;BME280;22478;51.740;-1.314;2023-11-21T04:34:39;100593.15;;;2.23;100.00
36454;BME280;22478;51.740;-1.314;2023-11-21T04:37:06;100596.01;;;0.90;100.00
36454;BME280;22478;51.740;-1.314;2023-11-21T04:39:34;100603.23;;;2.31;100.00
36454;BME280;22478;51.740;-1.314;2023-11-21T04:42:01;100611.35;;;2.26;100.00
36454;BME280;22478;51.740;-1.314;2023-11-21T04:44:28;100613.58;;;1.52;100.00
36454;BME280;22478;51.740;-1.314;2023-11-21T04:46:55;100616.02;;;2.01;100.00
36454;BME280;22478;51.740;-1.314;2023-11-21T04:49:22;100616.71;;;1.71;100.00
36454;BME280;22478;51.740;-1.314;2023-11-21T04:51:49;100612.36;;;3.19;100.00
36454;BME280;22478;51.740;-1.314;2023-11-21T04:54:17;100614.39;;;3.34;100.00
36454;BME280;22478;51.740;-1.314;2023-11-21T04:56:44;100622.98;;;4.20;100.00
36454;BME280;22478;51.740;-1.314;2023-11-21T04:59:11;100632.54;;;1.42;100.00
36454;BME280;22478;51.740;-1.314;2023-11-21T05:01:38;100636.06;;;2.11;100.00
36454;BME280;22478;51.740;-1.314;2023-11-21T05:04:05;100634.64;;;2.52;100.00
36454;BME280;22478;51.740;-1.314;2023-11-21T05:06:32;100648.80;;;1.55;100.00
36454;BME280;22478;51.740;-1.314;2023-11-21T05:09:00;100656.22;;;1.72;100.00
36454;BME280;22478;51.740;-1.314;2023-11-21T05:11:27;100657.92;;;1.77;100.00
36454;BME280;22478;51.740;-1.314;2023-11-21T05:13:55;100659.85;;;2.33;100.00
36454;BME280;22478;51.740;-1.314;2023-11-21T05:16:22;100663.80;;;2.42;100.00
36454;BME280;22478;51.740;-1.314;2023-11-21T05:18:49;100652.00;;;4.85;100.00
36454;BME280;22478;51.740;-1.314;2023-11-21T05:21:16;100668.68;;;2.01;100.00
36454;BME280;22478;51.740;-1.314;2023-11-21T05:23:43;100666.09;;;2.76;100.00
36454;BME280;22478;51.740;-1.314;2023-11-21T05:26:10;100668.19;;;3.56;100.00
36454;BME280;22478;51.740;-1.314;2023-11-21T05:28:37;100680.40;;;2.25;100.00
36454;BME280;22478;51.740;-1.314;2023-11-21T05:31:05;100686.52;;;1.95;100.00
36454;BME280;22478;51.740;-1.314;2023-11-21T05:33:32;100693.06;;;0.91;100.00
36454;BME280;22478;51.740;-1.314;2023-11-21T05:35:59;100705.24;;;0.94;100.00
36454;BME280;22478;51.740;-1.314;2023-11-21T05:38:26;100697.15;;;4.37;100.00
36454;BME280;22478;51.740;-1.314;2023-11-21T05:40:53;100699.80;;;5.02;100.00
36454;BME280;22478;51.740;-1.314;2023-11-21T05:43:20;100713.88;;;1.77;100.00
36454;BME280;22478;51.740;-1.314;2023-11-21T05:45:48;100715.36;;;2.88;100.00
36454;BME280;22478;51.740;-1.314;2023-11-21T05:48:15;100723.90;;;2.82;100.00
36454;BME280;22478;51.740;-1.314;2023-11-21T05:50:42;100718.17;;;3.13;100.00
36454;BME280;22478;51.740;-1.314;2023-11-21T05:53:09;100730.71;;;1.40;100.00
36454;BME280;22478;51.740;-1.314;2023-11-21T05:55:36;100732.34;;;2.18;100.00
36454;BME280;22478;51.740;-1.314;2023-11-21T05:58:03;100729.22;;;3.32;100.00
36454;BME280;22478;51.740;-1.314;2023-11-21T06:00:30;100740.33;;;2.00;100.00
36454;BME280;22478;51.740;-1.314;2023-11-21T06:02:57;100733.27;;;2.16;100.00
36454;BME280;22478;51.740;-1.314;2023-11-21T06:05:26;100748.63;;;1.43;100.00
36454;BME280;22478;51.740;-1.314;2023-11-21T06:07:55;100750.27;;;2.25;100.00
36454;BME280;22478;51.740;-1.314;2023-11-21T06:10:22;100753.20;;;2.61;100.00
36454;BME280;22478;51.740;-1.314;2023-11-21T06:12:49;100762.26;;;0.43;100.00
36454;BME280;22478;51.740;-1.314;2023-11-21T06:15:16;100757.69;;;1.73;100.00
36454;BME280;22478;51.740;-1.314;2023-11-21T06:17:43;100763.88;;;0.84;100.00
36454;BME280;22478;51.740;-1.314;2023-11-21T06:20:11;100758.51;;;1.51;100.00
36454;BME280;22478;51.740;-1.314;2023-11-21T06:22:40;100765.65;;;2.65;100.00
36454;BME280;22478;51.740;-1.314;2023-11-21T06:25:08;100770.29;;;1.03;100.00
36454;BME280;22478;51.740;-1.314;2023-11-21T06:27:40;100770.68;;;2.85;100.00
36454;BME280;22478;51.740;-1.314;2023-11-21T06:30:08;100772.64;;;3.24;100.00
36454;BME280;22478;51.740;-1.314;2023-11-21T06:32:36;100771.33;;;3.64;100.00
36454;BME280;22478;51.740;-1.314;2023-11-21T06:35:03;100777.62;;;2.19;100.00
36454;BME280;22478;51.740;-1.314;2023-11-21T06:37:31;100778.55;;;2.34;100.00
36454;BME280;22478;51.740;-1.314;2023-11-21T06:39:59;100782.81;;;1.66;100.00
36454;BME280;22478;51.740;-1.314;2023-11-21T06:42:27;100783.15;;;2.23;100.00
36454;BME280;22478;51.740;-1.314;2023-11-21T06:44:55;100789.42;;;2.17;100.00
36454;BME280;22478;51.740;-1.314;2023-11-21T06:47:23;100789.54;;;1.85;100.00
36454;BME280;22478;51.740;-1.314;2023-11-21T06:49:50;100795.47;;;2.48;100.00
36454;BME280;22478;51.740;-1.314;2023-11-21T06:52:18;100802.72;;;2.83;100.00
36454;BME280;22478;51.740;-1.314;2023-11-21T06:54:45;100803.63;;;3.86;100.00
36454;BME280;22478;51.740;-1.314;2023-11-21T06:57:12;100807.59;;;2.69;100.00
36454;BME280;22478;51.740;-1.314;2023-11-21T06:59:39;100807.32;;;1.73;100.00
36454;BME280;22478;51.740;-1.314;2023-11-21T07:02:06;100808.57;;;2.94;100.00
36454;BME280;22478;51.740;-1.314;2023-11-21T07:04:33;100811.16;;;2.94;100.00
36454;BME280;22478;51.740;-1.314;2023-11-21T07:07:06;100814.42;;;2.61;100.00
36454;BME280;22478;51.740;-1.314;2023-11-21T07:09:33;100821.87;;;2.00;100.00
36454;BME280;22478;51.740;-1.314;2023-11-21T07:12:00;100826.83;;;1.92;100.00
36454;BME280;22478;51.740;-1.314;2023-11-21T07:14:27;100841.72;;;0.90;100.00
36454;BME280;22478;51.740;-1.314;2023-11-21T07:16:55;100838.02;;;0.42;100.00
36454;BME280;22478;51.740;-1.314;2023-11-21T07:19:22;100842.57;;;2.87;100.00
36454;BME280;22478;51.740;-1.314;2023-11-21T07:21:54;100841.39;;;1.96;100.00
36454;BME280;22478;51.740;-1.314;2023-11-21T07:24:21;100850.96;;;1.09;100.00
36454;BME280;22478;51.740;-1.314;2023-11-21T07:26:48;100849.57;;;2.83;100.00
36454;BME280;22478;51.740;-1.314;2023-11-21T07:29:15;100852.65;;;3.85;100.00
36454;BME280;22478;51.740;-1.314;2023-11-21T07:31:42;100850.32;;;2.88;100.00
36454;BME280;22478;51.740;-1.314;2023-11-21T07:34:09;100857.47;;;2.24;100.00
36454;BME280;22478;51.740;-1.314;2023-11-21T07:36:37;100866.96;;;1.37;100.00
36454;BME280;22478;51.740;-1.314;2023-11-21T07:39:04;100876.52;;;0.96;100.00
36454;BME280;22478;51.740;-1.314;2023-11-21T07:41:32;100887.14;;;0.43;100.00
36454;BME280;22478;51.740;-1.314;2023-11-21T07:43:59;100889.35;;;0.50;100.00
36454;BME280;22478;51.740;-1.314;2023-11-21T07:46:26;100884.97;;;2.24;100.00
36454;BME280;22478;51.740;-1.314;2023-11-21T07:48:58;100884.46;;;2.72;100.00
36454;BME280;22478;51.740;-1.314;2023-11-21T07:51:25;100886.92;;;2.94;100.00
36454;BME280;22478;51.740;-1.314;2023-11-21T07:53:52;100899.71;;;1.77;100.00
36454;BME280;22478;51.740;-1.314;2023-11-21T07:56:19;100894.56;;;2.54;100.00
36454;BME280;22478;51.740;-1.314;2023-11-21T07:58:46;100906.97;;;1.82;100.00
36454;BME280;22478;51.740;-1.314;2023-11-21T08:01:14;100902.24;;;2.72;100.00
36454;BME280;22478;51.740;-1.314;2023-11-21T08:03:46;100907.88;;;0.93;100.00
36454;BME280;22478;51.740;-1.314;2023-11-21T08:06:13;100892.78;;;2.64;100.00
36454;BME280;22478;51.740;-1.314;2023-11-21T08:08:40;100891.22;;;3.05;100.00
36454;BME280;22478;51.740;-1.314;2023-11-21T08:11:07;100915.33;;;0.78;100.00
36454;BME280;22478;51.740;-1.314;2023-11-21T08:13:34;100919.60;;;2.32;100.00
36454;BME280;22478;51.740;-1.314;2023-11-21T08:16:02;100921.79;;;1.55;100.00
36454;BME280;22478;51.740;-1.314;2023-11-21T08:18:29;100931.49;;;1.31;100.00
36454;BME280;22478;51.740;-1.314;2023-11-21T08:20:56;100931.99;;;1.42;100.00
36454;BME280;22478;51.740;-1.314;2023-11-21T08:23:23;100932.35;;;0.94;100.00
36454;BME280;22478;51.740;-1.314;2023-11-21T08:25:50;100931.03;;;1.86;100.00
36454;BME280;22478;51.740;-1.314;2023-11-21T08:28:17;100929.16;;;1.59;100.00
36454;BME280;22478;51.740;-1.314;2023-11-21T08:30:44;100937.53;;;1.57;100.00
36454;BME280;22478;51.740;-1.314;2023-11-21T08:33:12;100936.49;;;0.97;100.00
36454;BME280;22478;51.740;-1.314;2023-11-21T08:35:39;100938.08;;;1.34;100.00
36454;BME280;22478;51.740;-1.314;2023-11-21T08:38:06;100942.11;;;1.68;100.00
36454;BME280;22478;51.740;-1.314;2023-11-21T08:40:35;100943.71;;;1.38;100.00
36454;BME280;22478;51.740;-1.314;2023-11-21T08:43:02;100950.96;;;0.82;100.00
36454;BME280;22478;51.740;-1.314;2023-11-21T08:45:30;100954.25;;;2.23;100.00
36454;BME280;22478;51.740;-1.314;2023-11-21T08:47:57;100962.86;;;1.45;100.00
36454;BME280;22478;51.740;-1.314;2023-11-21T08:50:24;100964.06;;;1.78;100.00
36454;BME280;22478;51.740;-1.314;2023-11-21T08:52:51;100962.27;;;3.09;100.00
36454;BME280;22478;51.740;-1.314;2023-11-21T08:55:18;100967.60;;;0.99;100.00
36454;BME280;22478;51.740;-1.314;2023-11-21T08:57:45;100969.32;;;1.44;100.00
36454;BME280;22478;51.740;-1.314;2023-11-21T09:00:12;100974.05;;;1.44;100.00
36454;BME280;22478;51.740;-1.314;2023-11-21T09:02:40;100976.58;;;1.64;100.00
36454;BME280;22478;51.740;-1.314;2023-11-21T09:05:09;100981.33;;;0.66;100.00
36454;BME280;22478;51.740;-1.314;2023-11-21T09:07:36;100989.88;;;0.46;100.00
36454;BME280;22478;51.740;-1.314;2023-11-21T09:10:05;101000.00;;;-0.03;100.00
36454;BME280;22478;51.740;-1.314;2023-11-21T09:12:33;100997.55;;;1.84;100.00
36454;BME280;22478;51.740;-1.314;2023-11-21T09:15:00;100999.84;;;1.63;100.00
36454;BME280;22478;51.740;-1.314;2023-11-21T09:17:27;100992.45;;;3.11;100.00
36454;BME280;22478;51.740;-1.314;2023-11-21T09:19:54;100990.43;;;1.89;100.00
36454;BME280;22478;51.740;-1.314;2023-11-21T09:22:21;100991.49;;;1.53;100.00
36454;BME280;22478;51.740;-1.314;2023-11-21T09:24:48;100995.37;;;1.78;100.00
36454;BME280;22478;51.740;-1.314;2023-11-21T09:27:16;101004.87;;;1.03;100.00
36454;BME280;22478;51.740;-1.314;2023-11-21T09:29:43;101000.33;;;2.56;100.00
36454;BME280;22478;51.740;-1.314;2023-11-21T09:32:11;101001.09;;;1.94;100.00
36454;BME280;22478;51.740;-1.314;2023-11-21T09:34:38;101002.49;;;1.52;100.00
36454;BME280;22478;51.740;-1.314;2023-11-21T09:37:07;101000.01;;;1.59;100.00
36454;BME280;22478;51.740;-1.314;2023-11-21T09:39:34;101010.59;;;1.42;100.00
36454;BME280;22478;51.740;-1.314;2023-11-21T09:42:07;101006.94;;;2.56;100.00
36454;BME280;22478;51.740;-1.314;2023-11-21T09:44:36;101011.35;;;1.51;100.00
36454;BME280;22478;51.740;-1.314;2023-11-21T09:47:10;101019.97;;;1.47;100.00
36454;BME280;22478;51.740;-1.314;2023-11-21T09:49:40;101025.99;;;0.95;100.00
36454;BME280;22478;51.740;-1.314;2023-11-21T09:52:09;101033.87;;;0.77;100.00
36454;BME280;22478;51.740;-1.314;2023-11-21T09:54:40;101028.07;;;1.73;100.00
36454;BME280;22478;51.740;-1.314;2023-11-21T09:57:07;101035.23;;;0.28;100.00
36454;BME280;22478;51.740;-1.314;2023-11-21T09:59:35;101039.06;;;1.10;100.00
36454;BME280;22478;51.740;-1.314;2023-11-21T10:02:03;101041.07;;;0.91;100.00
36454;BME280;22478;51.740;-1.314;2023-11-21T10:04:31;101050.62;;;1.08;100.00
36454;BME280;22478;51.740;-1.314;2023-11-21T10:06:58;101053.74;;;0.58;100.00
36454;BME280;22478;51.740;-1.314;2023-11-21T10:09:26;101048.96;;;2.04;100.00
36454;BME280;22478;51.740;-1.314;2023-11-21T10:11:55;101039.43;;;2.79;100.00
36454;BME280;22478;51.740;-1.314;2023-11-21T10:14:24;101050.07;;;1.07;100.00
36454;BME280;22478;51.740;-1.314;2023-11-21T10:16:53;101056.02;;;1.49;100.00
36454;BME280;22478;51.740;-1.314;2023-11-21T10:19:21;101052.51;;;1.56;100.00
36454;BME280;22478;51.740;-1.314;2023-11-21T10:21:49;101059.66;;;2.00;100.00
36454;BME280;22478;51.740;-1.314;2023-11-21T10:24:17;101065.45;;;1.58;100.00
36454;BME280;22478;51.740;-1.314;2023-11-21T10:26:44;101064.17;;;2.03;100.00
36454;BME280;22478;51.740;-1.314;2023-11-21T10:29:14;101062.18;;;2.27;100.00
36454;BME280;22478;51.740;-1.314;2023-11-21T10:31:41;101069.47;;;1.43;100.00
36454;BME280;22478;51.740;-1.314;2023-11-21T10:34:16;101069.36;;;2.03;100.00
36454;BME280;22478;51.740;-1.314;2023-11-21T10:36:44;101069.68;;;1.68;100.00
36454;BME280;22478;51.740;-1.314;2023-11-21T10:39:16;101065.59;;;2.00;100.00
36454;BME280;22478;51.740;-1.314;2023-11-21T10:41:43;101070.13;;;1.21;100.00
36454;BME280;22478;51.740;-1.314;2023-11-21T10:44:11;101072.53;;;2.00;100.00
36454;BME280;22478;51.740;-1.314;2023-11-21T10:46:40;101075.81;;;2.89;100.00
36454;BME280;22478;51.740;-1.314;2023-11-21T10:49:08;101076.57;;;1.67;100.00
36454;BME280;22478;51.740;-1.314;2023-11-21T10:51:35;101078.60;;;1.44;100.00
36454;BME280;22478;51.740;-1.314;2023-11-21T10:54:02;101074.48;;;2.42;100.00
36454;BME280;22478;51.740;-1.314;2023-11-21T10:56:30;101073.60;;;2.46;100.00
36454;BME280;22478;51.740;-1.314;2023-11-21T10:58:57;101082.01;;;1.50;100.00
36454;BME280;22478;51.740;-1.314;2023-11-21T11:01:26;101075.31;;;1.56;100.00
36454;BME280;22478;51.740;-1.314;2023-11-21T11:03:55;101080.67;;;2.43;100.00
36454;BME280;22478;51.740;-1.314;2023-11-21T11:06:24;101086.54;;;1.80;100.00
36454;BME280;22478;51.740;-1.314;2023-11-21T11:08:53;101088.31;;;1.92;100.00
36454;BME280;22478;51.740;-1.314;2023-11-21T11:11:21;101094.06;;;1.57;100.00
36454;BME280;22478;51.740;-1.314;2023-11-21T11:13:49;101102.32;;;1.59;100.00
36454;BME280;22478;51.740;-1.314;2023-11-21T11:16:16;101104.84;;;1.98;100.00
36454;BME280;22478;51.740;-1.314;2023-11-21T11:18:44;101114.91;;;1.45;100.00
36454;BME280;22478;51.740;-1.314;2023-11-21T11:21:20;101103.92;;;1.75;100.00
36454;BME280;22478;51.740;-1.314;2023-11-21T11:24:02;101111.39;;;1.69;100.00
36454;BME280;22478;51.740;-1.314;2023-11-21T11:26:39;101107.80;;;2.70;100.00
36454;BME280;22478;51.740;-1.314;2023-11-21T11:29:17;101106.58;;;3.12;100.00
36454;BME280;22478;51.740;-1.314;2023-11-21T11:31:55;101121.01;;;2.17;100.00
36454;BME280;22478;51.740;-1.314;2023-11-21T11:34:30;101135.34;;;1.15;100.00
36454;BME280;22478;51.740;-1.314;2023-11-21T11:37:01;101128.07;;;1.62;100.00
36454;BME280;22478;51.740;-1.314;2023-11-21T11:39:30;101134.70;;;1.94;100.00
36454;BME280;22478;51.740;-1.314;2023-11-21T11:42:01;101138.33;;;1.73;100.00
36454;BME280;22478;51.740;-1.314;2023-11-21T11:44:48;101126.57;;;1.30;100.00
36454;BME280;22478;51.740;-1.314;2023-11-21T11:47:16;101129.19;;;2.08;100.00
36454;BME280;22478;51.740;-1.314;2023-11-21T11:49:57;101135.88;;;2.52;100.00
36454;BME280;22478;51.740;-1.314;2023-11-21T11:52:41;101139.65;;;2.41;100.00
36454;BME280;22478;51.740;-1.314;2023-11-21T11:55:11;101151.07;;;2.21;100.00
36454;BME280;22478;51.740;-1.314;2023-11-21T11:57:39;101157.43;;;1.55;100.00
36454;BME280;22478;51.740;-1.314;2023-11-21T12:00:11;101153.77;;;1.51;100.00
36454;BME280;22478;51.740;-1.314;2023-11-21T12:02:38;101157.73;;;1.61;100.00
36454;BME280;22478;51.740;-1.314;2023-11-21T12:05:09;101154.17;;;1.96;100.00
36454;BME280;22478;51.740;-1.314;2023-11-21T12:07:45;101160.29;;;2.33;100.00
36454;BME280;22478;51.740;-1.314;2023-11-21T12:10:14;101169.60;;;1.84;100.00
36454;BME280;22478;51.740;-1.314;2023-11-21T12:12:44;101171.76;;;2.71;100.00
36454;BME280;22478;51.740;-1.314;2023-11-21T12:15:12;101178.44;;;2.42;100.00
36454;BME280;22478;51.740;-1.314;2023-11-21T12:17:43;101186.16;;;2.20;100.00
36454;BME280;22478;51.740;-1.314;2023-11-21T12:20:11;101184.49;;;2.74;100.00
36454;BME280;22478;51.740;-1.314;2023-11-21T12:22:40;101193.75;;;2.20;100.00
36454;BME280;22478;51.740;-1.314;2023-11-21T12:25:08;101196.11;;;0.68;100.00
36454;BME280;22478;51.740;-1.314;2023-11-21T12:27:35;101197.81;;;1.75;100.00
36454;BME280;22478;51.740;-1.314;2023-11-21T12:30:02;101213.77;;;1.48;100.00
36454;BME280;22478;51.740;-1.314;2023-11-21T12:32:30;101211.24;;;1.58;100.00
36454;BME280;22478;51.740;-1.314;2023-11-21T12:34:57;101207.12;;;1.95;100.00
36454;BME280;22478;51.740;-1.314;2023-11-21T12:37:24;101215.05;;;1.63;100.00
36454;BME280;22478;51.740;-1.314;2023-11-21T12:39:51;101212.81;;;2.35;100.00
36454;BME280;22478;51.740;-1.314;2023-11-21T12:42:19;101216.68;;;0.76;100.00
36454;BME280;22478;51.740;-1.314;2023-11-21T12:44:46;101228.98;;;1.55;100.00